createdAt,value
2022-12-18T00:02:46.509Z,81.85
2022-12-18T00:07:47.951Z,89.27
2022-12-18T00:12:49.213Z,73.03
2022-12-18T00:17:50.478Z,78.78
2022-12-18T00:22:52.535Z,80.80
2022-12-18T00:27:56.563Z,80.10
2022-12-18T00:32:58.366Z,77.13
2022-12-18T00:37:59.646Z,76.15
2022-12-18T00:43:00.882Z,62.97
2022-12-18T00:48:02.173Z,64.93
2022-12-18T00:53:03.428Z,64.43
2022-12-18T00:58:04.859Z,59.07
2022-12-18T01:03:06.442Z,64.40
2022-12-18T01:08:07.718Z,65.38
2022-12-18T01:13:09.373Z,59.70
2022-12-18T01:18:11.235Z,56.58
2022-12-18T01:23:12.465Z,54.80
2022-12-18T01:28:13.696Z,56.58
2022-12-18T01:33:14.924Z,46.03
2022-12-18T01:38:16.194Z,52.22
2022-12-18T01:43:17.469Z,50.50
2022-12-18T01:48:18.741Z,46.33
2022-12-18T01:53:21.809Z,54.38
2022-12-18T01:58:25.667Z,53.25
2022-12-18T02:03:27.508Z,48.42
2022-12-18T02:08:31.622Z,46.55
2022-12-18T02:13:46.907Z,47.23
2022-12-18T02:18:55.003Z,42.92
2022-12-18T02:23:59.289Z,42.45
2022-12-18T02:29:06.881Z,48.05
2022-12-18T02:34:09.326Z,46.13
2022-12-18T02:39:11.847Z,43.20
2022-12-18T02:44:13.982Z,45.30
2022-12-18T02:49:21.913Z,44.97
2022-12-18T02:54:32.263Z,39.38
2022-12-18T02:59:40.442Z,45.90
2022-12-18T03:04:48.564Z,44.93
2022-12-18T03:09:51.048Z,44.22
2022-12-18T03:15:07.717Z,41.20
2022-12-18T03:20:18.085Z,43.92
2022-12-18T03:25:19.948Z,42.63
2022-12-18T03:30:21.489Z,44.87
2022-12-18T03:35:26.282Z,44.88
2022-12-18T03:40:30.320Z,45.10
2022-12-18T03:45:35.391Z,38.97
2022-12-18T03:50:36.592Z,42.17
2022-12-18T03:55:38.681Z,43.43
2022-12-18T04:00:40.069Z,48.10
2022-12-18T04:05:49.979Z,42.13
2022-12-18T04:10:51.268Z,41.25
2022-12-18T04:15:52.741Z,41.78
2022-12-18T04:20:54.103Z,45.07
2022-12-18T04:25:55.622Z,42.33
2022-12-18T04:30:57.111Z,38.92
2022-12-18T04:35:58.936Z,41.92
2022-12-18T04:41:00.210Z,38.67
2022-12-18T04:46:10.261Z,42.10
2022-12-18T04:51:11.507Z,45.00
2022-12-18T04:56:14.232Z,40.15
2022-12-18T05:01:16.359Z,43.50
2022-12-18T05:06:17.785Z,46.13
2022-12-18T05:11:19.084Z,38.83
2022-12-18T05:16:20.355Z,43.03
2022-12-18T05:21:21.626Z,40.67
2022-12-18T05:26:23.031Z,43.45
2022-12-18T05:31:24.400Z,41.58
2022-12-18T05:36:25.740Z,40.43
2022-12-18T05:41:27.238Z,42.30
2022-12-18T05:46:28.618Z,43.03
2022-12-18T05:51:29.963Z,46.35
2022-12-18T05:56:31.268Z,42.33
2022-12-18T06:01:32.605Z,40.07
2022-12-18T06:06:33.880Z,46.00
2022-12-18T06:11:35.759Z,39.10
2022-12-18T06:16:37.068Z,41.72
2022-12-18T06:21:38.379Z,39.85
2022-12-18T06:26:39.999Z,40.47
2022-12-18T06:31:41.300Z,40.00
2022-12-18T06:36:42.623Z,36.88
2022-12-18T06:41:43.919Z,40.58
2022-12-18T06:46:45.238Z,43.50
2022-12-18T06:51:46.567Z,47.33
2022-12-18T06:56:48.708Z,51.22
2022-12-18T07:01:50.184Z,50.20
2022-12-18T07:06:51.608Z,59.28
2022-12-18T07:11:52.867Z,46.72
2022-12-18T07:16:54.446Z,53.03
2022-12-18T07:21:55.939Z,55.83
2022-12-18T07:26:57.219Z,42.88
2022-12-18T07:31:58.565Z,58.85
2022-12-18T07:36:59.934Z,48.55
2022-12-18T07:42:20.069Z,45.50
2022-12-18T07:47:22.736Z,43.60
2022-12-18T07:52:26.134Z,49.75
2022-12-18T07:57:49.401Z,47.08
2022-12-18T08:02:49.089Z,57.92
2022-12-18T08:07:50.428Z,47.47
2022-12-18T08:12:52.236Z,44.72
2022-12-18T08:17:53.590Z,45.58
2022-12-18T08:22:55.101Z,56.15
2022-12-18T08:27:57.693Z,51.97
2022-12-18T08:32:59.071Z,65.00
2022-12-18T08:38:00.295Z,62.78
2022-12-18T08:43:20.295Z,48.15
2022-12-18T08:48:22.464Z,49.20
2022-12-18T08:53:25.072Z,55.95
2022-12-18T08:58:26.335Z,59.00
2022-12-18T09:03:27.657Z,47.95
2022-12-18T09:08:29.183Z,46.53
2022-12-18T09:13:30.460Z,48.80
2022-12-18T09:18:31.676Z,60.47
2022-12-18T09:23:32.955Z,49.43
2022-12-18T09:28:34.489Z,50.45
2022-12-18T09:33:36.616Z,47.50
2022-12-18T09:38:38.150Z,58.20
2022-12-18T09:43:48.233Z,52.47
2022-12-18T09:48:52.050Z,62.03
2022-12-18T09:54:04.346Z,56.78
2022-12-18T09:59:06.167Z,58.67
2022-12-18T10:04:09.595Z,61.72
2022-12-18T10:09:26.116Z,49.50
2022-12-18T10:14:27.313Z,52.97
2022-12-18T10:19:40.753Z,60.45
2022-12-18T10:24:44.787Z,55.78
2022-12-18T10:29:46.664Z,57.22
2022-12-18T10:34:56.662Z,50.78
2022-12-18T10:40:08.037Z,47.80
2022-12-18T10:45:11.025Z,54.47
2022-12-18T10:50:26.293Z,50.05
2022-12-18T10:55:40.693Z,46.45
2022-12-18T11:00:42.062Z,46.97
2022-12-18T11:05:43.355Z,47.53
2022-12-18T11:10:47.726Z,51.03
2022-12-18T11:15:49.845Z,51.75
2022-12-18T11:20:58.166Z,48.95
2022-12-18T11:26:00.845Z,46.35
2022-12-18T11:31:22.475Z,55.17
2022-12-18T11:36:24.025Z,48.47
2022-12-18T11:41:57.302Z,53.20
2022-12-18T11:47:04.518Z,43.05
2022-12-18T11:52:10.662Z,54.25
2022-12-18T11:57:14.710Z,48.37
2022-12-18T12:02:34.981Z,50.20
2022-12-18T12:07:36.412Z,55.53
2022-12-18T12:12:52.791Z,54.20
2022-12-18T12:17:57.094Z,76.20
2022-12-18T12:23:28.137Z,54.57
2022-12-18T12:28:30.685Z,57.17
2022-12-18T12:33:50.443Z,55.05
2022-12-18T12:38:55.434Z,62.65
2022-12-18T12:43:58.577Z,53.45
2022-12-18T12:49:02.459Z,49.97
2022-12-18T12:54:06.150Z,55.33
2022-12-18T12:59:07.840Z,57.03
2022-12-18T13:04:18.516Z,54.60
2022-12-18T13:09:21.129Z,57.95
2022-12-18T13:14:27.646Z,56.23
2022-12-18T13:19:29.145Z,58.35
2022-12-18T13:24:31.901Z,52.40
2022-12-18T13:29:46.188Z,58.25
2022-12-18T13:34:48.077Z,55.38
2022-12-18T13:39:49.317Z,53.07
2022-12-18T13:44:50.968Z,55.97
2022-12-18T13:49:53.506Z,51.92
2022-12-18T13:54:56.456Z,54.63
2022-12-18T13:59:58.291Z,66.72
2022-12-18T14:04:59.583Z,61.63
2022-12-18T14:10:41.178Z,66.35
2022-12-18T14:15:26.375Z,60.25
2022-12-18T14:20:32.634Z,56.95
2022-12-18T14:25:33.935Z,59.08
2022-12-18T14:30:36.538Z,76.73
2022-12-18T14:35:39.658Z,66.13
2022-12-18T14:40:40.965Z,61.20
2022-12-18T14:45:44.606Z,52.83
2022-12-18T14:50:54.583Z,56.20
2022-12-18T14:55:55.876Z,68.60
2022-12-18T15:00:57.629Z,60.13
2022-12-18T15:06:15.893Z,66.07
2022-12-18T15:11:28.151Z,56.08
2022-12-18T15:16:29.526Z,64.63
2022-12-18T15:21:32.551Z,63.70
2022-12-18T15:26:37.080Z,58.30
2022-12-18T15:31:38.758Z,68.60
2022-12-18T15:36:40.261Z,72.90
2022-12-18T15:42:01.540Z,66.22
2022-12-18T15:47:02.952Z,62.57
2022-12-18T15:52:04.328Z,62.38
2022-12-18T15:57:23.761Z,63.03
2022-12-18T16:02:25.639Z,58.42
2022-12-18T16:07:30.292Z,62.13
2022-12-18T16:12:32.273Z,86.50
2022-12-18T16:17:33.613Z,83.88
2022-12-18T16:22:34.912Z,81.70
2022-12-18T16:27:36.262Z,83.13
2022-12-18T16:32:37.569Z,70.22
2022-12-18T16:37:39.302Z,58.93
2022-12-18T16:42:41.158Z,60.75
2022-12-18T16:47:42.574Z,61.97
2022-12-18T16:52:43.948Z,68.10
2022-12-18T16:57:45.229Z,63.15
2022-12-18T17:02:46.975Z,56.77
2022-12-18T17:07:48.513Z,66.45
2022-12-18T17:12:50.858Z,70.13
2022-12-18T17:17:52.214Z,67.30
2022-12-18T17:22:53.524Z,66.05
2022-12-18T17:27:54.831Z,65.77
2022-12-18T17:32:56.224Z,75.50
2022-12-18T17:37:57.590Z,61.50
2022-12-18T17:42:59.884Z,69.25
2022-12-18T17:48:01.321Z,65.32
2022-12-18T17:53:03.040Z,84.50
2022-12-18T17:58:04.385Z,64.25
2022-12-18T18:03:05.744Z,60.47
2022-12-18T18:08:07.150Z,68.25
2022-12-18T18:13:39.662Z,65.32
2022-12-18T18:18:42.209Z,65.30
2022-12-18T18:23:43.926Z,64.15
2022-12-18T18:28:47.232Z,65.78
2022-12-18T18:33:48.507Z,62.90
2022-12-18T18:38:50.316Z,75.15
2022-12-18T18:43:55.903Z,76.23
2022-12-18T18:48:57.176Z,90.28
2022-12-18T18:53:59.616Z,98.13
2022-12-18T18:59:01.831Z,80.35
2022-12-18T19:04:03.574Z,75.60
2022-12-18T19:09:06.545Z,65.23
2022-12-18T19:14:08.770Z,63.83
2022-12-18T19:19:09.989Z,66.57
2022-12-18T19:24:11.336Z,63.58
2022-12-18T19:29:14.608Z,67.28
2022-12-18T19:34:15.962Z,67.57
2022-12-18T19:39:18.166Z,65.50
2022-12-18T19:44:20.593Z,65.70
2022-12-18T19:49:21.956Z,70.65
2022-12-18T19:54:23.264Z,66.10
2022-12-18T19:59:27.096Z,62.67
2022-12-18T20:04:28.445Z,57.55
2022-12-18T20:09:29.790Z,81.18
2022-12-18T20:14:31.214Z,68.75
2022-12-18T20:19:32.474Z,76.63
2022-12-18T20:24:35.440Z,70.00
2022-12-18T20:29:36.821Z,63.22
2022-12-18T20:34:38.096Z,59.50
2022-12-18T20:39:39.844Z,56.80
2022-12-18T20:44:41.968Z,63.72
2022-12-18T20:49:43.307Z,72.77
2022-12-18T20:54:47.059Z,67.85
2022-12-18T20:59:48.611Z,69.03
2022-12-18T21:04:50.070Z,63.70
2022-12-18T21:09:51.359Z,60.85
2022-12-18T21:14:52.698Z,64.73
2022-12-18T21:19:54.240Z,74.75
2022-12-18T21:24:56.292Z,71.53
2022-12-18T21:29:57.628Z,86.55
2022-12-18T21:34:59.142Z,66.82
2022-12-18T21:40:00.410Z,64.97
2022-12-18T21:45:01.695Z,61.42
2022-12-18T21:50:03.061Z,68.85
2022-12-18T21:55:09.578Z,68.07
2022-12-18T22:00:12.520Z,68.20
2022-12-18T22:05:20.717Z,67.57
2022-12-18T22:10:21.982Z,65.47
2022-12-18T22:15:23.252Z,68.43
2022-12-18T22:20:24.558Z,61.47
2022-12-18T22:25:28.091Z,64.13
2022-12-18T22:30:29.392Z,61.53
2022-12-18T22:35:30.716Z,62.58
2022-12-18T22:40:31.981Z,53.85
2022-12-18T22:45:34.118Z,60.45
2022-12-18T22:50:39.630Z,57.42
2022-12-18T22:55:40.943Z,59.57
2022-12-18T23:00:42.274Z,65.50
2022-12-18T23:05:43.511Z,65.90
2022-12-18T23:10:44.740Z,64.45
2022-12-18T23:15:47.319Z,63.78
2022-12-18T23:20:48.724Z,61.00
2022-12-18T23:25:49.955Z,57.30
2022-12-18T23:30:51.260Z,58.60
2022-12-18T23:35:52.541Z,63.95
2022-12-18T23:40:54.215Z,60.80
2022-12-18T23:45:58.093Z,66.70
2022-12-18T23:51:03.943Z,66.40
2022-12-18T23:56:09.169Z,58.20
